createdAt,value
2023-04-15T00:01:10.191Z,7.59
2023-04-15T00:03:37.192Z,7.45
2023-04-15T00:06:04.200Z,7.26
2023-04-15T00:08:31.102Z,7.45
2023-04-15T00:11:02.864Z,7.22
2023-04-15T00:13:29.845Z,7.45
2023-04-15T00:15:56.607Z,7.41
2023-04-15T00:18:24.558Z,7.50
2023-04-15T00:20:51.261Z,7.51
2023-04-15T00:23:18.136Z,7.60
2023-04-15T00:25:45.056Z,7.69
2023-04-15T00:28:11.695Z,7.78
2023-04-15T00:30:39.110Z,7.88
2023-04-15T00:33:05.972Z,7.67
2023-04-15T00:35:32.858Z,7.48
2023-04-15T00:37:59.986Z,7.58
2023-04-15T00:40:28.210Z,7.58
2023-04-15T00:42:55.664Z,7.50
2023-04-15T00:45:23.348Z,7.40
2023-04-15T00:47:51.453Z,7.09
2023-04-15T00:50:19.351Z,7.27
2023-04-15T00:52:46.210Z,7.30
2023-04-15T00:55:15.218Z,7.35
2023-04-15T00:57:42.643Z,7.45
2023-04-15T01:00:11.448Z,7.45
2023-04-15T01:02:39.278Z,7.28
2023-04-15T01:05:07.739Z,7.40
2023-04-15T01:07:34.391Z,7.31
2023-04-15T01:10:01.316Z,7.31
2023-04-15T01:12:28.293Z,7.51
2023-04-15T01:14:56.211Z,7.65
2023-04-15T01:17:24.670Z,7.51
2023-04-15T01:19:52.348Z,7.75
2023-04-15T01:22:19.153Z,7.84
2023-04-15T01:24:59.392Z,7.74
2023-04-15T01:27:26.100Z,7.76
2023-04-15T01:29:52.867Z,7.86
2023-04-15T01:32:20.036Z,7.88
2023-04-15T01:34:46.816Z,7.85
2023-04-15T01:37:13.641Z,7.91
2023-04-15T01:39:40.755Z,7.65
2023-04-15T01:42:07.703Z,7.52
2023-04-15T01:44:34.405Z,7.61
2023-04-15T01:47:01.310Z,7.24
2023-04-15T01:49:28.507Z,7.19
2023-04-15T01:51:55.212Z,7.49
2023-04-15T01:54:29.896Z,7.35
2023-04-15T01:56:56.940Z,7.28
2023-04-15T01:59:23.690Z,7.48
2023-04-15T02:01:51.141Z,7.61
2023-04-15T02:04:18.162Z,7.31
2023-04-15T02:06:44.984Z,7.34
2023-04-15T02:09:11.826Z,7.35
2023-04-15T02:11:39.303Z,7.23
2023-04-15T02:14:06.518Z,6.99
2023-04-15T02:16:33.828Z,7.21
2023-04-15T02:19:01.423Z,7.35
2023-04-15T02:21:28.317Z,7.48
2023-04-15T02:23:55.060Z,7.30
2023-04-15T02:26:22.527Z,7.39
2023-04-15T02:28:51.418Z,7.50
2023-04-15T02:31:18.444Z,7.42
2023-04-15T02:33:45.581Z,7.01
2023-04-15T02:36:12.571Z,7.04
2023-04-15T02:38:41.362Z,7.02
2023-04-15T02:41:08.694Z,7.05
2023-04-15T02:43:35.557Z,7.18
2023-04-15T02:46:02.406Z,7.11
2023-04-15T02:48:29.256Z,7.18
2023-04-15T02:51:11.807Z,7.13
2023-04-15T02:53:38.497Z,6.87
2023-04-15T02:56:06.207Z,7.06
2023-04-15T02:58:32.924Z,7.14
2023-04-15T03:00:59.603Z,7.10
2023-04-15T03:03:28.210Z,6.92
2023-04-15T03:05:54.966Z,6.92
2023-04-15T03:08:21.648Z,7.14
2023-04-15T03:10:48.914Z,7.12
2023-04-15T03:13:15.858Z,7.19
2023-04-15T03:15:42.647Z,7.13
2023-04-15T03:18:15.773Z,7.17
2023-04-15T03:20:42.575Z,7.13
2023-04-15T03:23:09.318Z,7.11
2023-04-15T03:25:37.494Z,6.84
2023-04-15T03:28:04.234Z,6.90
2023-04-15T03:30:31.100Z,6.89
2023-04-15T03:32:58.833Z,6.82
2023-04-15T03:35:25.599Z,6.80
2023-04-15T03:37:52.371Z,6.91
2023-04-15T03:40:19.258Z,6.90
2023-04-15T03:42:47.300Z,6.55
2023-04-15T03:45:14.050Z,6.56
2023-04-15T03:47:40.846Z,6.65
2023-04-15T03:50:08.441Z,6.57
2023-04-15T03:52:35.458Z,6.77
2023-04-15T03:55:03.490Z,6.75
2023-04-15T03:57:31.310Z,6.78
2023-04-15T03:59:57.989Z,6.41
2023-04-15T04:02:24.812Z,6.33
2023-04-15T04:04:51.945Z,6.55
2023-04-15T04:07:19.060Z,6.59
2023-04-15T04:09:47.292Z,6.74
2023-04-15T04:12:14.285Z,6.81
2023-04-15T04:14:41.155Z,6.61
2023-04-15T04:17:08.469Z,6.56
2023-04-15T04:19:35.476Z,6.25
2023-04-15T04:22:02.409Z,6.18
2023-04-15T04:24:31.670Z,6.19
2023-04-15T04:26:58.399Z,6.24
2023-04-15T04:29:25.054Z,6.45
2023-04-15T04:31:52.022Z,6.50
2023-04-15T04:34:19.303Z,6.67
2023-04-15T04:36:46.164Z,6.80
2023-04-15T04:39:15.447Z,6.82
2023-04-15T04:41:42.103Z,6.88
2023-04-15T04:44:08.947Z,6.96
2023-04-15T04:46:35.631Z,7.03
2023-04-15T04:49:02.855Z,7.03
2023-04-15T04:51:29.627Z,7.09
2023-04-15T04:53:57.285Z,7.18
2023-04-15T04:56:25.803Z,7.21
2023-04-15T04:58:52.576Z,7.29
2023-04-15T05:01:19.398Z,7.31
2023-04-15T05:03:46.217Z,7.34
2023-04-15T05:06:13.038Z,7.21
2023-04-15T05:08:41.323Z,6.85
2023-04-15T05:11:07.991Z,6.64
2023-04-15T05:13:34.675Z,6.82
2023-04-15T05:16:01.560Z,8.95
2023-04-15T05:18:28.313Z,11.27
2023-04-15T05:20:55.012Z,12.59
2023-04-15T05:23:21.756Z,14.13
2023-04-15T05:25:48.424Z,15.59
2023-04-15T05:28:15.095Z,16.39
2023-04-15T05:30:41.973Z,15.90
2023-04-15T05:33:09.156Z,17.04
2023-04-15T05:35:35.845Z,17.15
2023-04-15T05:38:02.547Z,18.12
2023-04-15T05:40:30.904Z,19.16
2023-04-15T05:42:57.627Z,19.80
2023-04-15T05:45:24.334Z,19.95
2023-04-15T05:47:54.231Z,20.57
2023-04-15T05:50:31.392Z,21.04
2023-04-15T05:52:58.355Z,21.68
2023-04-15T05:55:25.841Z,22.37
2023-04-15T05:57:52.476Z,22.58
2023-04-15T06:00:19.285Z,23.07
2023-04-15T06:02:46.288Z,22.71
2023-04-15T06:05:13.820Z,22.83
2023-04-15T06:07:40.590Z,23.18
2023-04-15T06:10:10.625Z,23.64
2023-04-15T06:12:37.453Z,24.22
2023-04-15T06:15:06.685Z,24.34
2023-04-15T06:17:34.370Z,23.76
2023-04-15T06:20:01.135Z,23.70
2023-04-15T06:22:27.771Z,23.84
2023-04-15T06:24:57.038Z,22.72
2023-04-15T06:27:23.867Z,24.27
2023-04-15T06:29:50.692Z,23.91
2023-04-15T06:32:17.365Z,24.73
2023-04-15T06:34:44.188Z,24.15
2023-04-15T06:37:15.887Z,21.90
2023-04-15T06:39:45.470Z,20.89
2023-04-15T06:42:12.303Z,20.97
2023-04-15T06:44:39.205Z,20.32
2023-04-15T06:47:06.186Z,21.98
2023-04-15T06:49:33.794Z,23.66
2023-04-15T06:52:00.743Z,22.08
2023-04-15T06:54:27.700Z,22.12
2023-04-15T06:56:54.504Z,22.78
2023-04-15T06:59:21.169Z,20.64
2023-04-15T07:01:49.254Z,21.45
2023-04-15T07:04:16.128Z,23.21
2023-04-15T07:06:43.028Z,23.92
2023-04-15T07:09:09.990Z,19.77
2023-04-15T07:11:36.743Z,21.35
2023-04-15T07:14:03.469Z,19.79
2023-04-15T07:16:30.647Z,17.40
2023-04-15T07:18:57.386Z,20.04
2023-04-15T07:21:26.082Z,22.20
2023-04-15T07:23:52.871Z,19.41
2023-04-15T07:26:19.735Z,19.22
2023-04-15T07:28:47.550Z,21.94
2023-04-15T07:31:15.123Z,21.71
2023-04-15T07:33:41.911Z,22.49
2023-04-15T07:36:09.316Z,22.94
2023-04-15T07:38:36.127Z,20.37
2023-04-15T07:41:03.497Z,20.30
2023-04-15T07:43:30.142Z,19.25
2023-04-15T07:45:56.857Z,18.96
2023-04-15T07:48:23.526Z,18.81
2023-04-15T07:50:52.061Z,19.23
2023-04-15T07:53:19.311Z,19.71
2023-04-15T07:55:45.922Z,18.77
2023-04-15T07:58:12.573Z,18.34
2023-04-15T08:00:39.282Z,18.77
2023-04-15T08:03:06.086Z,20.13
2023-04-15T08:05:33.315Z,19.85
2023-04-15T08:08:00.501Z,18.66
2023-04-15T08:10:27.423Z,20.02
2023-04-15T08:12:55.046Z,18.32
2023-04-15T08:15:21.790Z,18.49
2023-04-15T08:17:49.618Z,19.36
2023-04-15T08:20:16.562Z,18.18
2023-04-15T08:22:43.335Z,17.91
2023-04-15T08:25:10.525Z,18.28
2023-04-15T08:27:37.613Z,18.48
2023-04-15T08:30:05.284Z,17.68
2023-04-15T08:32:32.258Z,17.69
2023-04-15T08:34:59.292Z,18.07
2023-04-15T08:37:26.974Z,19.37
2023-04-15T08:39:53.654Z,18.94
2023-04-15T08:42:27.940Z,19.94
2023-04-15T08:44:55.711Z,21.11
2023-04-15T08:47:27.483Z,21.45
2023-04-15T08:49:57.305Z,21.30
2023-04-15T08:52:26.612Z,20.25
2023-04-15T08:55:00.378Z,20.74
2023-04-15T08:57:28.829Z,20.72
2023-04-15T08:59:57.385Z,19.91
2023-04-15T09:02:26.046Z,19.27
2023-04-15T09:04:53.311Z,18.12
2023-04-15T09:07:20.010Z,17.35
2023-04-15T09:09:48.692Z,17.02
2023-04-15T09:12:18.590Z,16.94
2023-04-15T09:14:47.442Z,17.69
2023-04-15T09:17:18.693Z,18.57
2023-04-15T09:19:45.349Z,19.08
2023-04-15T09:22:12.774Z,18.51
2023-04-15T09:24:42.353Z,17.61
2023-04-15T09:27:09.212Z,16.75
2023-04-15T09:29:37.123Z,17.02
2023-04-15T09:32:14.156Z,17.25
2023-04-15T09:34:40.877Z,17.36
2023-04-15T09:37:08.094Z,18.18
2023-04-15T09:39:51.474Z,18.31
2023-04-15T09:42:24.536Z,17.78
2023-04-15T09:44:53.203Z,16.49
2023-04-15T09:47:31.539Z,16.47
2023-04-15T09:49:59.790Z,16.66
2023-04-15T09:52:27.448Z,16.99
2023-04-15T09:54:56.599Z,17.38
2023-04-15T09:57:24.793Z,17.58
2023-04-15T09:59:56.757Z,17.47
2023-04-15T10:02:24.277Z,16.64
2023-04-15T10:04:52.734Z,16.54
2023-04-15T10:07:22.571Z,16.60
2023-04-15T10:09:49.715Z,16.58
2023-04-15T10:12:18.220Z,16.43
2023-04-15T10:14:46.597Z,16.62
2023-04-15T10:17:15.973Z,16.32
2023-04-15T10:19:43.032Z,16.71
2023-04-15T10:22:10.360Z,16.97
2023-04-15T10:24:38.978Z,16.97
2023-04-15T10:27:07.217Z,17.10
2023-04-15T10:29:35.180Z,17.67
2023-04-15T10:32:03.184Z,17.24
2023-04-15T10:34:32.133Z,17.55
2023-04-15T10:37:03.784Z,16.70
2023-04-15T10:39:34.172Z,17.40
2023-04-15T10:42:21.403Z,17.62
2023-04-15T10:44:56.545Z,18.44
2023-04-15T10:47:23.394Z,18.19
2023-04-15T10:49:52.468Z,18.17
2023-04-15T10:52:25.167Z,16.86
2023-04-15T10:55:04.563Z,16.08
2023-04-15T10:57:41.975Z,16.25
2023-04-15T11:00:09.209Z,15.90
2023-04-15T11:02:45.827Z,15.80
2023-04-15T11:05:13.994Z,16.04
2023-04-15T11:07:47.125Z,16.47
2023-04-15T11:10:13.742Z,16.48
2023-04-15T11:12:42.074Z,16.27
2023-04-15T11:15:41.721Z,16.47
2023-04-15T11:18:22.404Z,17.14
2023-04-15T11:20:59.814Z,16.99
2023-04-15T11:23:32.284Z,17.29
2023-04-15T11:26:00.929Z,17.76
2023-04-15T11:28:29.302Z,17.28
2023-04-15T11:30:56.456Z,17.33
2023-04-15T11:33:24.444Z,17.22
2023-04-15T11:35:54.407Z,17.24
2023-04-15T11:38:21.643Z,17.71
2023-04-15T11:40:48.829Z,17.93
2023-04-15T11:43:20.830Z,17.59
2023-04-15T11:45:57.554Z,17.59
2023-04-15T11:48:29.033Z,17.08
2023-04-15T11:51:07.321Z,16.86
2023-04-15T11:53:37.230Z,16.95
2023-04-15T11:56:04.166Z,17.63
2023-04-15T11:58:30.927Z,17.99
2023-04-15T12:01:00.195Z,18.41
2023-04-15T12:03:28.594Z,17.82
2023-04-15T12:06:06.340Z,18.38
2023-04-15T12:09:06.833Z,18.29
2023-04-15T12:11:35.211Z,17.97
2023-04-15T12:14:08.823Z,17.68
2023-04-15T12:16:49.439Z,17.94
2023-04-15T12:19:27.742Z,18.26
2023-04-15T12:22:00.996Z,18.29
2023-04-15T12:24:28.673Z,17.55
2023-04-15T12:26:58.052Z,17.85
2023-04-15T12:29:29.316Z,17.00
2023-04-15T12:31:58.287Z,17.06
2023-04-15T12:34:33.319Z,16.47
2023-04-15T12:37:01.395Z,16.74
2023-04-15T12:39:31.201Z,15.43
2023-04-15T12:42:06.263Z,15.45
2023-04-15T12:44:33.687Z,15.27
2023-04-15T12:47:00.692Z,15.53
2023-04-15T12:49:28.254Z,15.51
2023-04-15T12:51:57.417Z,15.63
2023-04-15T12:54:24.152Z,15.88
2023-04-15T12:56:51.366Z,15.61
2023-04-15T12:59:18.712Z,15.53
2023-04-15T13:01:47.500Z,15.90
2023-04-15T13:04:15.590Z,15.02
2023-04-15T13:06:42.840Z,15.69
2023-04-15T13:09:09.660Z,15.73
2023-04-15T13:11:36.838Z,14.87
2023-04-15T13:14:08.504Z,15.16
2023-04-15T13:16:36.027Z,15.20
2023-04-15T13:19:04.158Z,15.87
2023-04-15T13:21:35.056Z,15.60
2023-04-15T13:24:02.413Z,15.43
2023-04-15T13:26:29.434Z,15.21
2023-04-15T13:28:56.535Z,15.91
2023-04-15T13:31:23.424Z,16.28
2023-04-15T13:33:50.426Z,16.35
2023-04-15T13:36:17.212Z,15.97
2023-04-15T13:38:43.907Z,16.13
2023-04-15T13:41:11.791Z,16.27
2023-04-15T13:43:38.396Z,15.30
2023-04-15T13:46:06.073Z,14.78
2023-04-15T13:48:34.277Z,15.23
2023-04-15T13:51:01.055Z,15.35
2023-04-15T13:53:38.186Z,14.83
2023-04-15T13:56:09.680Z,14.68
2023-04-15T13:58:37.772Z,14.69
2023-04-15T14:01:07.130Z,14.95
2023-04-15T14:03:37.315Z,15.25
2023-04-15T14:06:05.362Z,15.57
2023-04-15T14:08:32.186Z,15.08
2023-04-15T14:10:58.968Z,14.87
2023-04-15T14:13:25.678Z,14.17
2023-04-15T14:15:52.427Z,13.99
2023-04-15T14:18:19.240Z,13.91
2023-04-15T14:20:46.293Z,13.79
2023-04-15T14:23:13.128Z,13.75
2023-04-15T14:25:39.856Z,14.30
2023-04-15T14:28:07.092Z,14.62
2023-04-15T14:30:33.974Z,14.67
2023-04-15T14:33:00.907Z,14.86
2023-04-15T14:35:28.767Z,14.69
2023-04-15T14:37:55.838Z,14.89
2023-04-15T14:40:22.904Z,14.72
2023-04-15T14:42:49.796Z,14.85
2023-04-15T14:45:16.677Z,14.84
2023-04-15T14:47:43.834Z,15.16
2023-04-15T14:50:10.809Z,15.31
2023-04-15T14:52:40.320Z,15.08
2023-04-15T14:55:12.112Z,15.00
2023-04-15T14:57:40.182Z,14.53
2023-04-15T15:00:08.659Z,14.94
2023-04-15T15:02:39.806Z,15.06
2023-04-15T15:05:08.092Z,14.73
2023-04-15T15:07:37.393Z,14.67
2023-04-15T15:10:05.069Z,14.60
2023-04-15T15:12:33.012Z,14.80
2023-04-15T15:15:00.471Z,14.20
2023-04-15T15:17:28.219Z,14.06
2023-04-15T15:19:54.905Z,13.99
2023-04-15T15:22:21.655Z,13.93
2023-04-15T15:24:48.725Z,13.67
2023-04-15T15:27:15.787Z,13.56
2023-04-15T15:29:42.584Z,13.70
2023-04-15T15:32:09.341Z,13.80
2023-04-15T15:34:36.066Z,13.96
2023-04-15T15:37:02.836Z,13.97
2023-04-15T15:39:29.521Z,13.89
2023-04-15T15:41:56.318Z,13.66
2023-04-15T15:44:23.361Z,13.43
2023-04-15T15:46:51.264Z,13.76
2023-04-15T15:49:18.159Z,13.72
2023-04-15T15:51:45.931Z,13.70
2023-04-15T15:54:12.972Z,13.48
2023-04-15T15:56:40.114Z,13.42
2023-04-15T15:59:06.975Z,13.50
2023-04-15T16:01:33.985Z,13.32
2023-04-15T16:04:01.087Z,13.45
2023-04-15T16:06:28.290Z,13.24
2023-04-15T16:08:55.462Z,13.00
2023-04-15T16:11:22.337Z,12.93
2023-04-15T16:13:49.537Z,12.84
2023-04-15T16:16:16.159Z,12.68
2023-04-15T16:18:42.852Z,12.61
2023-04-15T16:21:09.610Z,12.21
2023-04-15T16:23:36.957Z,12.38
2023-04-15T16:26:03.829Z,12.23
2023-04-15T16:28:30.670Z,12.21
2023-04-15T16:30:57.451Z,12.19
2023-04-15T16:33:24.254Z,12.04
2023-04-15T16:35:51.562Z,11.98
2023-04-15T16:38:18.236Z,11.91
2023-04-15T16:40:44.896Z,11.76
2023-04-15T16:43:11.752Z,11.68
2023-04-15T16:45:38.620Z,11.56
2023-04-15T16:48:05.848Z,11.55
2023-04-15T16:50:32.918Z,11.65
2023-04-15T16:52:59.557Z,11.60
2023-04-15T16:55:26.414Z,11.59
2023-04-15T16:58:01.868Z,11.42
2023-04-15T17:00:31.900Z,11.38
2023-04-15T17:03:00.317Z,11.38
2023-04-15T17:05:36.169Z,11.32
2023-04-15T17:08:03.087Z,11.20
2023-04-15T17:10:31.285Z,11.10
2023-04-15T17:12:58.771Z,10.98
2023-04-15T17:15:26.209Z,11.02
2023-04-15T17:17:53.580Z,10.96
2023-04-15T17:20:20.813Z,10.86
2023-04-15T17:22:48.711Z,10.88
2023-04-15T17:25:15.713Z,10.75
2023-04-15T17:27:42.348Z,10.74
2023-04-15T17:30:09.770Z,10.57
2023-04-15T17:32:37.150Z,10.43
2023-04-15T17:35:06.585Z,10.38
2023-04-15T17:37:34.291Z,10.06
2023-04-15T17:40:01.025Z,10.03
2023-04-15T17:42:27.771Z,10.16
2023-04-15T17:44:54.473Z,10.03
2023-04-15T17:47:21.369Z,9.81
2023-04-15T17:49:48.091Z,9.66
2023-04-15T17:52:15.026Z,9.87
2023-04-15T17:54:41.758Z,9.90
2023-04-15T17:57:09.327Z,9.78
2023-04-15T17:59:36.122Z,9.52
2023-04-15T18:02:02.913Z,9.22
2023-04-15T18:04:29.745Z,9.25
2023-04-15T18:06:56.550Z,9.37
2023-04-15T18:09:23.274Z,9.10
2023-04-15T18:11:49.995Z,9.05
2023-04-15T18:14:27.106Z,9.01
2023-04-15T18:16:57.838Z,9.10
2023-04-15T18:19:25.808Z,9.05
2023-04-15T18:21:52.562Z,8.92
2023-04-15T18:24:19.415Z,9.00
2023-04-15T18:26:48.777Z,8.75
2023-04-15T18:29:15.773Z,8.65
2023-04-15T18:31:42.553Z,8.68
2023-04-15T18:34:12.048Z,8.48
2023-04-15T18:36:38.728Z,8.02
2023-04-15T18:39:05.711Z,8.15
2023-04-15T18:41:32.565Z,8.15
2023-04-15T18:43:59.265Z,8.20
2023-04-15T18:46:26.066Z,8.22
2023-04-15T18:48:52.805Z,8.02
2023-04-15T18:51:19.563Z,7.85
2023-04-15T18:53:46.258Z,8.03
2023-04-15T18:56:17.963Z,7.79
2023-04-15T18:59:18.636Z,7.58
2023-04-15T19:01:32.414Z,7.25
2023-04-15T19:03:59.597Z,7.62
2023-04-15T19:06:27.295Z,7.41
2023-04-15T19:08:54.767Z,7.52
2023-04-15T19:11:21.871Z,7.60
2023-04-15T19:13:48.669Z,7.49
2023-04-15T19:16:15.459Z,7.28
2023-04-15T19:18:43.030Z,7.27
2023-04-15T19:21:11.196Z,6.93
2023-04-15T19:23:38.526Z,7.27
2023-04-15T19:26:05.427Z,7.03
2023-04-15T19:28:32.114Z,7.24
2023-04-15T19:30:58.879Z,7.25
2023-04-15T19:33:31.040Z,6.78
2023-04-15T19:36:05.919Z,7.11
2023-04-15T19:38:35.733Z,7.19
2023-04-15T19:41:02.428Z,6.91
2023-04-15T19:43:29.730Z,6.86
2023-04-15T19:45:56.527Z,6.88
2023-04-15T19:48:25.341Z,6.82
2023-04-15T19:50:52.059Z,6.45
2023-04-15T19:53:19.006Z,6.45
2023-04-15T19:55:47.087Z,6.57
2023-04-15T19:58:13.926Z,6.30
2023-04-15T20:00:40.665Z,6.15
2023-04-15T20:03:07.588Z,6.21
2023-04-15T20:05:34.361Z,6.21
2023-04-15T20:08:01.655Z,6.11
2023-04-15T20:10:29.777Z,6.04
2023-04-15T20:12:56.526Z,6.23
2023-04-15T20:15:24.145Z,6.39
2023-04-15T20:17:51.316Z,6.30
2023-04-15T20:20:18.992Z,6.19
2023-04-15T20:22:45.740Z,6.08
2023-04-15T20:25:12.755Z,5.96
2023-04-15T20:27:39.603Z,5.87
2023-04-15T20:30:07.499Z,6.03
2023-04-15T20:32:36.040Z,5.65
2023-04-15T20:35:05.258Z,5.72
2023-04-15T20:37:33.671Z,5.58
2023-04-15T20:40:01.355Z,5.51
2023-04-15T20:42:28.369Z,5.35
2023-04-15T20:44:55.019Z,5.51
2023-04-15T20:47:21.804Z,5.70
2023-04-15T20:49:48.592Z,5.30
2023-04-15T20:52:15.369Z,5.32
2023-04-15T20:54:41.996Z,5.38
2023-04-15T20:57:08.856Z,5.26
2023-04-15T20:59:36.041Z,5.20
2023-04-15T21:02:04.180Z,5.18
2023-04-15T21:04:31.120Z,5.07
2023-04-15T21:06:57.781Z,5.19
2023-04-15T21:09:25.490Z,4.89
2023-04-15T21:12:01.041Z,4.80
2023-04-15T21:14:28.811Z,4.80
2023-04-15T21:16:58.345Z,4.82
2023-04-15T21:19:25.276Z,4.81
2023-04-15T21:21:52.420Z,4.87
2023-04-15T21:24:19.102Z,4.84
2023-04-15T21:26:45.921Z,4.83
2023-04-15T21:29:12.925Z,4.88
2023-04-15T21:31:40.377Z,5.19
2023-04-15T21:34:07.120Z,5.17
2023-04-15T21:36:34.006Z,5.35
2023-04-15T21:39:01.106Z,5.33
2023-04-15T21:41:28.026Z,5.55
2023-04-15T21:43:54.746Z,5.55
2023-04-15T21:46:25.386Z,5.17
2023-04-15T21:48:59.917Z,4.78
2023-04-15T21:51:26.984Z,4.79
2023-04-15T21:53:53.852Z,4.96
2023-04-15T21:56:23.182Z,5.26
2023-04-15T21:58:49.913Z,5.25
2023-04-15T22:01:17.007Z,5.53
2023-04-15T22:03:43.934Z,5.51
2023-04-15T22:06:10.855Z,5.22
2023-04-15T22:08:48.355Z,4.99
2023-04-15T22:11:30.312Z,5.07
2023-04-15T22:13:57.621Z,4.86
2023-04-15T22:16:27.414Z,5.18
2023-04-15T22:18:55.458Z,5.25
2023-04-15T22:21:22.424Z,5.17
2023-04-15T22:23:49.580Z,5.30
2023-04-15T22:26:16.359Z,5.26
2023-04-15T22:28:43.057Z,5.40
2023-04-15T22:31:10.078Z,5.32
2023-04-15T22:33:36.877Z,5.05
2023-04-15T22:36:03.728Z,5.02
2023-04-15T22:38:30.707Z,5.05
2023-04-15T22:40:57.473Z,4.98
2023-04-15T22:43:24.269Z,5.11
2023-04-15T22:45:51.379Z,5.00
2023-04-15T22:48:21.367Z,5.23
2023-04-15T22:50:48.315Z,5.33
2023-04-15T22:53:17.443Z,4.95
2023-04-15T22:55:48.325Z,4.76
2023-04-15T22:58:16.278Z,4.92
2023-04-15T23:00:42.970Z,4.91
2023-04-15T23:03:10.196Z,5.09
2023-04-15T23:05:37.740Z,4.87
2023-04-15T23:08:04.430Z,4.86
2023-04-15T23:10:31.252Z,4.89
2023-04-15T23:12:58.085Z,4.79
2023-04-15T23:15:25.364Z,4.96
2023-04-15T23:17:52.026Z,5.13
2023-04-15T23:20:18.713Z,5.16
2023-04-15T23:22:45.704Z,5.23
2023-04-15T23:25:12.480Z,5.24
2023-04-15T23:27:39.154Z,5.32
2023-04-15T23:30:06.659Z,5.18
2023-04-15T23:32:33.397Z,5.18
2023-04-15T23:35:00.008Z,5.09
2023-04-15T23:37:26.706Z,5.22
2023-04-15T23:39:53.429Z,5.19
2023-04-15T23:42:20.077Z,5.25
2023-04-15T23:44:46.741Z,5.30
2023-04-15T23:47:13.467Z,5.31
2023-04-15T23:49:40.957Z,5.33
2023-04-15T23:52:07.963Z,5.34
2023-04-15T23:54:34.748Z,5.18
2023-04-15T23:57:01.725Z,5.23
2023-04-15T23:59:28.782Z,4.95
